Aviation Digital Data Service (ADDS)

Output produced by METARs form (1507 UTC 03 August 2015)
found at http://www.aviationweather.gov/adds/metars/
 
KATL 031353Z 0314/0418 07006KT P6SM FEW250 
     FM031600 03005KT P6SM FEW250 
     FM031800 35006KT P6SM SCT050 
     FM040300 35004KT P6SM FEW080 
     FM041700 32005KT P6SM FEW040